sensor_id;sensor_type;location;lat;lon;timestamp;P1;durP1;ratioP1;P2;durP2;ratioP2
9970;SDS011;5026;51.494;11.974;2023-02-28T00:01:31;4.53;;;2.70;;
9970;SDS011;5026;51.494;11.974;2023-02-28T00:03:59;2.90;;;2.40;;
9970;SDS011;5026;51.494;11.974;2023-02-28T00:06:26;5.00;;;2.40;;
9970;SDS011;5026;51.494;11.974;2023-02-28T00:08:53;4.03;;;2.40;;
9970;SDS011;5026;51.494;11.974;2023-02-28T00:11:20;4.40;;;2.63;;
9970;SDS011;5026;51.494;11.974;2023-02-28T00:13:48;3.83;;;3.00;;
9970;SDS011;5026;51.494;11.974;2023-02-28T00:16:16;3.33;;;2.47;;
9970;SDS011;5026;51.494;11.974;2023-02-28T00:18:45;3.97;;;2.63;;
9970;SDS011;5026;51.494;11.974;2023-02-28T00:21:12;3.80;;;3.00;;
9970;SDS011;5026;51.494;11.974;2023-02-28T00:23:40;4.40;;;2.70;;
9970;SDS011;5026;51.494;11.974;2023-02-28T00:26:07;5.00;;;2.50;;
9970;SDS011;5026;51.494;11.974;2023-02-28T00:28:34;5.30;;;2.87;;
9970;SDS011;5026;51.494;11.974;2023-02-28T00:31:02;3.60;;;2.87;;
9970;SDS011;5026;51.494;11.974;2023-02-28T00:33:29;3.47;;;2.47;;
9970;SDS011;5026;51.494;11.974;2023-02-28T00:36:03;5.17;;;2.40;;
9970;SDS011;5026;51.494;11.974;2023-02-28T00:38:31;3.60;;;2.37;;
9970;SDS011;5026;51.494;11.974;2023-02-28T00:40:58;3.63;;;2.30;;
9970;SDS011;5026;51.494;11.974;2023-02-28T00:43:29;3.60;;;2.50;;
9970;SDS011;5026;51.494;11.974;2023-02-28T00:45:57;4.90;;;2.47;;
9970;SDS011;5026;51.494;11.974;2023-02-28T00:48:25;2.43;;;2.20;;
9970;SDS011;5026;51.494;11.974;2023-02-28T00:50:53;3.27;;;2.30;;
9970;SDS011;5026;51.494;11.974;2023-02-28T00:53:20;4.97;;;2.40;;
9970;SDS011;5026;51.494;11.974;2023-02-28T00:55:47;3.47;;;2.80;;
9970;SDS011;5026;51.494;11.974;2023-02-28T00:58:14;3.50;;;2.63;;
9970;SDS011;5026;51.494;11.974;2023-02-28T01:00:41;6.10;;;2.60;;
9970;SDS011;5026;51.494;11.974;2023-02-28T01:03:08;3.97;;;2.70;;
9970;SDS011;5026;51.494;11.974;2023-02-28T01:05:36;3.40;;;2.77;;
9970;SDS011;5026;51.494;11.974;2023-02-28T01:08:04;2.47;;;2.27;;
9970;SDS011;5026;51.494;11.974;2023-02-28T01:10:31;3.70;;;2.60;;
9970;SDS011;5026;51.494;11.974;2023-02-28T01:12:58;4.63;;;2.87;;
9970;SDS011;5026;51.494;11.974;2023-02-28T01:15:25;4.10;;;2.77;;
9970;SDS011;5026;51.494;11.974;2023-02-28T01:17:52;3.90;;;2.30;;
9970;SDS011;5026;51.494;11.974;2023-02-28T01:20:19;3.90;;;2.60;;
9970;SDS011;5026;51.494;11.974;2023-02-28T01:22:47;3.00;;;2.60;;
9970;SDS011;5026;51.494;11.974;2023-02-28T01:25:14;3.03;;;2.30;;
9970;SDS011;5026;51.494;11.974;2023-02-28T01:27:41;2.67;;;2.30;;
9970;SDS011;5026;51.494;11.974;2023-02-28T01:30:08;2.83;;;2.23;;
9970;SDS011;5026;51.494;11.974;2023-02-28T01:32:36;6.13;;;2.50;;
9970;SDS011;5026;51.494;11.974;2023-02-28T01:35:03;2.53;;;2.33;;
9970;SDS011;5026;51.494;11.974;2023-02-28T01:37:39;5.20;;;2.50;;
9970;SDS011;5026;51.494;11.974;2023-02-28T01:40:08;2.37;;;2.00;;
9970;SDS011;5026;51.494;11.974;2023-02-28T01:42:36;3.87;;;2.20;;
9970;SDS011;5026;51.494;11.974;2023-02-28T01:45:06;2.90;;;2.10;;
9970;SDS011;5026;51.494;11.974;2023-02-28T01:47:44;5.07;;;2.87;;
9970;SDS011;5026;51.494;11.974;2023-02-28T01:50:13;2.77;;;2.17;;
9970;SDS011;5026;51.494;11.974;2023-02-28T01:52:44;3.63;;;2.50;;
9970;SDS011;5026;51.494;11.974;2023-02-28T01:55:24;3.37;;;2.30;;
9970;SDS011;5026;51.494;11.974;2023-02-28T01:57:54;4.57;;;2.70;;
9970;SDS011;5026;51.494;11.974;2023-02-28T02:00:25;5.20;;;2.50;;
9970;SDS011;5026;51.494;11.974;2023-02-28T02:02:54;3.93;;;2.37;;
9970;SDS011;5026;51.494;11.974;2023-02-28T02:05:24;3.73;;;2.37;;
9970;SDS011;5026;51.494;11.974;2023-02-28T02:07:54;3.20;;;2.10;;
9970;SDS011;5026;51.494;11.974;2023-02-28T02:10:24;3.13;;;2.30;;
9970;SDS011;5026;51.494;11.974;2023-02-28T02:15:54;3.20;;;2.23;;
9970;SDS011;5026;51.494;11.974;2023-02-28T02:18:30;3.93;;;2.50;;
9970;SDS011;5026;51.494;11.974;2023-02-28T02:21:13;4.17;;;2.50;;
9970;SDS011;5026;51.494;11.974;2023-02-28T02:27:05;3.13;;;2.40;;
9970;SDS011;5026;51.494;11.974;2023-02-28T02:29:50;4.47;;;2.00;;
9970;SDS011;5026;51.494;11.974;2023-02-28T02:35:57;4.90;;;2.47;;
9970;SDS011;5026;51.494;11.974;2023-02-28T02:38:32;2.40;;;2.10;;
9970;SDS011;5026;51.494;11.974;2023-02-28T02:41:04;2.40;;;2.20;;
9970;SDS011;5026;51.494;11.974;2023-02-28T02:43:40;2.67;;;2.40;;
9970;SDS011;5026;51.494;11.974;2023-02-28T02:46:12;4.00;;;2.80;;
9970;SDS011;5026;51.494;11.974;2023-02-28T02:48:43;3.80;;;2.60;;
9970;SDS011;5026;51.494;11.974;2023-02-28T02:51:14;3.10;;;2.37;;
9970;SDS011;5026;51.494;11.974;2023-02-28T02:53:45;3.77;;;2.30;;
9970;SDS011;5026;51.494;11.974;2023-02-28T02:56:15;6.13;;;2.87;;
9970;SDS011;5026;51.494;11.974;2023-02-28T02:58:47;2.50;;;2.00;;
9970;SDS011;5026;51.494;11.974;2023-02-28T03:01:18;2.87;;;2.10;;
9970;SDS011;5026;51.494;11.974;2023-02-28T03:03:53;4.30;;;2.43;;
9970;SDS011;5026;51.494;11.974;2023-02-28T03:06:23;3.70;;;2.50;;
9970;SDS011;5026;51.494;11.974;2023-02-28T03:08:50;3.03;;;2.40;;
9970;SDS011;5026;51.494;11.974;2023-02-28T03:11:17;3.77;;;2.37;;
9970;SDS011;5026;51.494;11.974;2023-02-28T03:13:52;3.00;;;2.60;;
9970;SDS011;5026;51.494;11.974;2023-02-28T03:16:45;2.60;;;2.10;;
9970;SDS011;5026;51.494;11.974;2023-02-28T03:19:24;3.50;;;2.10;;
9970;SDS011;5026;51.494;11.974;2023-02-28T03:22:04;4.07;;;2.57;;
9970;SDS011;5026;51.494;11.974;2023-02-28T03:24:54;3.17;;;2.63;;
9970;SDS011;5026;51.494;11.974;2023-02-28T03:27:28;7.83;;;3.10;;
9970;SDS011;5026;51.494;11.974;2023-02-28T03:29:59;2.97;;;2.03;;
9970;SDS011;5026;51.494;11.974;2023-02-28T03:32:29;4.53;;;2.50;;
9970;SDS011;5026;51.494;11.974;2023-02-28T03:35:02;5.27;;;2.57;;
9970;SDS011;5026;51.494;11.974;2023-02-28T03:37:36;2.43;;;2.00;;
9970;SDS011;5026;51.494;11.974;2023-02-28T03:40:08;5.33;;;2.10;;
9970;SDS011;5026;51.494;11.974;2023-02-28T03:42:39;3.43;;;2.20;;
9970;SDS011;5026;51.494;11.974;2023-02-28T03:45:10;3.57;;;2.40;;
9970;SDS011;5026;51.494;11.974;2023-02-28T03:47:41;3.47;;;2.10;;
9970;SDS011;5026;51.494;11.974;2023-02-28T03:50:13;3.33;;;2.13;;
9970;SDS011;5026;51.494;11.974;2023-02-28T03:52:46;2.73;;;2.20;;
9970;SDS011;5026;51.494;11.974;2023-02-28T03:55:16;3.40;;;2.40;;
9970;SDS011;5026;51.494;11.974;2023-02-28T03:57:47;3.23;;;2.53;;
9970;SDS011;5026;51.494;11.974;2023-02-28T04:00:20;5.03;;;2.67;;
9970;SDS011;5026;51.494;11.974;2023-02-28T04:02:53;4.37;;;2.43;;
9970;SDS011;5026;51.494;11.974;2023-02-28T04:05:20;2.57;;;2.30;;
9970;SDS011;5026;51.494;11.974;2023-02-28T04:07:49;3.43;;;1.90;;
9970;SDS011;5026;51.494;11.974;2023-02-28T04:10:16;4.13;;;2.47;;
9970;SDS011;5026;51.494;11.974;2023-02-28T04:12:44;4.27;;;2.53;;
9970;SDS011;5026;51.494;11.974;2023-02-28T04:15:11;4.43;;;2.47;;
9970;SDS011;5026;51.494;11.974;2023-02-28T04:17:38;3.30;;;2.27;;
9970;SDS011;5026;51.494;11.974;2023-02-28T04:20:05;2.40;;;2.20;;
9970;SDS011;5026;51.494;11.974;2023-02-28T04:22:34;3.13;;;2.47;;
9970;SDS011;5026;51.494;11.974;2023-02-28T04:25:04;4.40;;;3.10;;
9970;SDS011;5026;51.494;11.974;2023-02-28T04:27:32;3.57;;;2.60;;
9970;SDS011;5026;51.494;11.974;2023-02-28T04:30:00;3.23;;;2.70;;
9970;SDS011;5026;51.494;11.974;2023-02-28T04:32:27;4.77;;;2.43;;
9970;SDS011;5026;51.494;11.974;2023-02-28T04:34:54;4.47;;;2.53;;
9970;SDS011;5026;51.494;11.974;2023-02-28T04:37:21;4.73;;;2.70;;
9970;SDS011;5026;51.494;11.974;2023-02-28T04:39:52;4.03;;;2.60;;
9970;SDS011;5026;51.494;11.974;2023-02-28T04:42:21;6.73;;;2.90;;
9970;SDS011;5026;51.494;11.974;2023-02-28T04:44:48;4.00;;;3.00;;
9970;SDS011;5026;51.494;11.974;2023-02-28T04:47:15;3.90;;;2.70;;
9970;SDS011;5026;51.494;11.974;2023-02-28T04:49:42;4.60;;;2.77;;
9970;SDS011;5026;51.494;11.974;2023-02-28T04:52:08;6.23;;;3.33;;
9970;SDS011;5026;51.494;11.974;2023-02-28T04:54:36;4.53;;;2.77;;
9970;SDS011;5026;51.494;11.974;2023-02-28T04:57:04;5.33;;;3.10;;
9970;SDS011;5026;51.494;11.974;2023-02-28T04:59:32;5.40;;;2.90;;
9970;SDS011;5026;51.494;11.974;2023-02-28T05:01:59;5.17;;;2.97;;
9970;SDS011;5026;51.494;11.974;2023-02-28T05:04:31;5.30;;;2.60;;
9970;SDS011;5026;51.494;11.974;2023-02-28T05:06:59;5.80;;;3.20;;
9970;SDS011;5026;51.494;11.974;2023-02-28T05:09:26;3.87;;;3.13;;
9970;SDS011;5026;51.494;11.974;2023-02-28T05:11:54;6.50;;;2.80;;
9970;SDS011;5026;51.494;11.974;2023-02-28T05:14:22;3.63;;;2.83;;
9970;SDS011;5026;51.494;11.974;2023-02-28T05:16:52;5.50;;;3.20;;
9970;SDS011;5026;51.494;11.974;2023-02-28T05:19:23;8.67;;;3.30;;
9970;SDS011;5026;51.494;11.974;2023-02-28T05:21:57;5.87;;;3.30;;
9970;SDS011;5026;51.494;11.974;2023-02-28T05:24:25;4.87;;;2.87;;
9970;SDS011;5026;51.494;11.974;2023-02-28T05:26:53;4.40;;;3.13;;
9970;SDS011;5026;51.494;11.974;2023-02-28T05:29:21;4.13;;;2.70;;
9970;SDS011;5026;51.494;11.974;2023-02-28T05:31:48;3.20;;;2.60;;
9970;SDS011;5026;51.494;11.974;2023-02-28T05:34:17;3.92;;;3.25;;
9970;SDS011;5026;51.494;11.974;2023-02-28T05:36:53;3.50;;;3.10;;
9970;SDS011;5026;51.494;11.974;2023-02-28T05:39:20;3.87;;;2.93;;
9970;SDS011;5026;51.494;11.974;2023-02-28T05:41:47;4.13;;;3.00;;
9970;SDS011;5026;51.494;11.974;2023-02-28T05:44:14;4.10;;;3.13;;
9970;SDS011;5026;51.494;11.974;2023-02-28T05:46:41;3.90;;;3.10;;
9970;SDS011;5026;51.494;11.974;2023-02-28T05:49:08;3.13;;;2.43;;
9970;SDS011;5026;51.494;11.974;2023-02-28T05:51:37;3.80;;;3.10;;
9970;SDS011;5026;51.494;11.974;2023-02-28T05:54:04;5.33;;;3.43;;
9970;SDS011;5026;51.494;11.974;2023-02-28T05:56:32;4.13;;;3.10;;
9970;SDS011;5026;51.494;11.974;2023-02-28T05:58:59;4.23;;;3.23;;
9970;SDS011;5026;51.494;11.974;2023-02-28T06:01:31;5.20;;;3.03;;
9970;SDS011;5026;51.494;11.974;2023-02-28T06:03:59;8.33;;;3.50;;
9970;SDS011;5026;51.494;11.974;2023-02-28T06:06:27;5.97;;;4.00;;
9970;SDS011;5026;51.494;11.974;2023-02-28T06:08:55;5.10;;;3.30;;
9970;SDS011;5026;51.494;11.974;2023-02-28T06:11:23;4.93;;;3.67;;
9970;SDS011;5026;51.494;11.974;2023-02-28T06:13:52;8.10;;;3.63;;
9970;SDS011;5026;51.494;11.974;2023-02-28T06:16:20;5.83;;;3.37;;
9970;SDS011;5026;51.494;11.974;2023-02-28T06:18:47;5.40;;;2.90;;
9970;SDS011;5026;51.494;11.974;2023-02-28T06:21:14;4.50;;;3.10;;
9970;SDS011;5026;51.494;11.974;2023-02-28T06:23:41;6.10;;;3.87;;
9970;SDS011;5026;51.494;11.974;2023-02-28T06:26:10;5.63;;;3.10;;
9970;SDS011;5026;51.494;11.974;2023-02-28T06:28:37;4.73;;;3.20;;
9970;SDS011;5026;51.494;11.974;2023-02-28T06:31:07;6.30;;;4.07;;
9970;SDS011;5026;51.494;11.974;2023-02-28T06:33:35;6.00;;;3.57;;
9970;SDS011;5026;51.494;11.974;2023-02-28T06:36:02;4.67;;;3.53;;
9970;SDS011;5026;51.494;11.974;2023-02-28T06:38:30;8.50;;;3.60;;
9970;SDS011;5026;51.494;11.974;2023-02-28T06:40:57;6.63;;;4.13;;
9970;SDS011;5026;51.494;11.974;2023-02-28T06:43:27;7.43;;;3.80;;
9970;SDS011;5026;51.494;11.974;2023-02-28T06:45:56;5.67;;;3.73;;
9970;SDS011;5026;51.494;11.974;2023-02-28T06:48:25;7.73;;;4.03;;
9970;SDS011;5026;51.494;11.974;2023-02-28T06:51:00;9.70;;;4.57;;
9970;SDS011;5026;51.494;11.974;2023-02-28T06:53:27;7.00;;;4.33;;
9970;SDS011;5026;51.494;11.974;2023-02-28T06:55:54;5.57;;;3.93;;
9970;SDS011;5026;51.494;11.974;2023-02-28T06:58:21;8.20;;;3.43;;
9970;SDS011;5026;51.494;11.974;2023-02-28T07:00:51;4.77;;;3.60;;
9970;SDS011;5026;51.494;11.974;2023-02-28T07:03:19;5.37;;;3.37;;
9970;SDS011;5026;51.494;11.974;2023-02-28T07:05:46;5.23;;;3.80;;
9970;SDS011;5026;51.494;11.974;2023-02-28T07:08:13;5.27;;;3.47;;
9970;SDS011;5026;51.494;11.974;2023-02-28T07:10:40;7.43;;;3.50;;
9970;SDS011;5026;51.494;11.974;2023-02-28T07:13:08;6.47;;;4.03;;
9970;SDS011;5026;51.494;11.974;2023-02-28T07:15:35;7.13;;;3.90;;
9970;SDS011;5026;51.494;11.974;2023-02-28T07:18:04;6.73;;;3.93;;
9970;SDS011;5026;51.494;11.974;2023-02-28T07:20:30;6.17;;;3.67;;
9970;SDS011;5026;51.494;11.974;2023-02-28T07:22:57;7.67;;;3.80;;
9970;SDS011;5026;51.494;11.974;2023-02-28T07:25:25;6.87;;;3.80;;
9970;SDS011;5026;51.494;11.974;2023-02-28T07:27:54;7.57;;;3.83;;
9970;SDS011;5026;51.494;11.974;2023-02-28T07:30:21;6.33;;;3.83;;
9970;SDS011;5026;51.494;11.974;2023-02-28T07:32:48;8.37;;;4.40;;
9970;SDS011;5026;51.494;11.974;2023-02-28T07:35:17;7.50;;;3.70;;
9970;SDS011;5026;51.494;11.974;2023-02-28T07:37:44;5.23;;;3.60;;
9970;SDS011;5026;51.494;11.974;2023-02-28T07:40:12;4.60;;;3.10;;
9970;SDS011;5026;51.494;11.974;2023-02-28T07:42:40;6.13;;;4.27;;
9970;SDS011;5026;51.494;11.974;2023-02-28T07:45:08;5.63;;;3.30;;
9970;SDS011;5026;51.494;11.974;2023-02-28T07:47:36;6.20;;;3.57;;
9970;SDS011;5026;51.494;11.974;2023-02-28T07:50:04;5.83;;;3.73;;
9970;SDS011;5026;51.494;11.974;2023-02-28T07:52:33;8.80;;;3.67;;
9970;SDS011;5026;51.494;11.974;2023-02-28T07:55:00;4.80;;;3.50;;
9970;SDS011;5026;51.494;11.974;2023-02-28T07:57:27;5.87;;;3.47;;
9970;SDS011;5026;51.494;11.974;2023-02-28T07:59:54;3.80;;;2.97;;
9970;SDS011;5026;51.494;11.974;2023-02-28T08:02:20;5.63;;;3.37;;
9970;SDS011;5026;51.494;11.974;2023-02-28T08:04:47;5.73;;;3.37;;
9970;SDS011;5026;51.494;11.974;2023-02-28T08:07:15;6.93;;;3.27;;
9970;SDS011;5026;51.494;11.974;2023-02-28T08:09:44;5.30;;;3.63;;
9970;SDS011;5026;51.494;11.974;2023-02-28T08:12:11;4.20;;;3.10;;
9970;SDS011;5026;51.494;11.974;2023-02-28T08:14:38;7.03;;;3.53;;
9970;SDS011;5026;51.494;11.974;2023-02-28T08:17:05;8.77;;;3.20;;
9970;SDS011;5026;51.494;11.974;2023-02-28T08:19:32;6.10;;;3.37;;
9970;SDS011;5026;51.494;11.974;2023-02-28T08:21:59;4.60;;;3.03;;
9970;SDS011;5026;51.494;11.974;2023-02-28T08:24:26;5.40;;;3.53;;
9970;SDS011;5026;51.494;11.974;2023-02-28T08:26:55;5.37;;;3.83;;
9970;SDS011;5026;51.494;11.974;2023-02-28T08:29:22;4.60;;;3.37;;
9970;SDS011;5026;51.494;11.974;2023-02-28T08:31:49;7.33;;;4.10;;
9970;SDS011;5026;51.494;11.974;2023-02-28T08:34:16;5.07;;;3.47;;
9970;SDS011;5026;51.494;11.974;2023-02-28T08:36:43;7.17;;;3.57;;
9970;SDS011;5026;51.494;11.974;2023-02-28T08:39:10;6.90;;;3.73;;
9970;SDS011;5026;51.494;11.974;2023-02-28T08:41:38;6.07;;;3.50;;
9970;SDS011;5026;51.494;11.974;2023-02-28T08:44:06;5.30;;;4.00;;
9970;SDS011;5026;51.494;11.974;2023-02-28T08:46:33;7.43;;;3.70;;
9970;SDS011;5026;51.494;11.974;2023-02-28T08:49:00;4.73;;;3.53;;
9970;SDS011;5026;51.494;11.974;2023-02-28T08:51:27;4.80;;;3.87;;
9970;SDS011;5026;51.494;11.974;2023-02-28T08:53:55;5.87;;;4.10;;
9970;SDS011;5026;51.494;11.974;2023-02-28T08:56:25;7.57;;;3.80;;
9970;SDS011;5026;51.494;11.974;2023-02-28T08:58:53;4.37;;;3.20;;
9970;SDS011;5026;51.494;11.974;2023-02-28T09:01:24;7.10;;;3.63;;
9970;SDS011;5026;51.494;11.974;2023-02-28T09:03:53;5.57;;;3.73;;
9970;SDS011;5026;51.494;11.974;2023-02-28T09:06:22;6.40;;;3.67;;
9970;SDS011;5026;51.494;11.974;2023-02-28T09:08:50;6.07;;;3.90;;
9970;SDS011;5026;51.494;11.974;2023-02-28T09:11:17;4.33;;;3.53;;
9970;SDS011;5026;51.494;11.974;2023-02-28T09:13:44;5.73;;;3.37;;
9970;SDS011;5026;51.494;11.974;2023-02-28T09:16:12;4.90;;;3.63;;
9970;SDS011;5026;51.494;11.974;2023-02-28T09:18:42;4.97;;;3.60;;
9970;SDS011;5026;51.494;11.974;2023-02-28T09:21:10;6.77;;;4.03;;
9970;SDS011;5026;51.494;11.974;2023-02-28T09:23:39;5.33;;;4.07;;
9970;SDS011;5026;51.494;11.974;2023-02-28T09:26:07;4.80;;;3.97;;
9970;SDS011;5026;51.494;11.974;2023-02-28T09:28:38;6.23;;;4.23;;
9970;SDS011;5026;51.494;11.974;2023-02-28T09:31:05;4.67;;;3.43;;
9970;SDS011;5026;51.494;11.974;2023-02-28T09:33:32;5.47;;;3.80;;
9970;SDS011;5026;51.494;11.974;2023-02-28T09:36:02;7.03;;;4.27;;
9970;SDS011;5026;51.494;11.974;2023-02-28T09:38:29;5.43;;;3.60;;
9970;SDS011;5026;51.494;11.974;2023-02-28T09:40:57;3.80;;;3.40;;
9970;SDS011;5026;51.494;11.974;2023-02-28T09:43:26;6.07;;;3.70;;
9970;SDS011;5026;51.494;11.974;2023-02-28T09:45:56;4.20;;;3.33;;
9970;SDS011;5026;51.494;11.974;2023-02-28T09:48:28;5.90;;;3.53;;
9970;SDS011;5026;51.494;11.974;2023-02-28T09:51:02;5.40;;;3.03;;
9970;SDS011;5026;51.494;11.974;2023-02-28T09:53:32;4.00;;;3.03;;
9970;SDS011;5026;51.494;11.974;2023-02-28T09:56:01;3.30;;;3.00;;
9970;SDS011;5026;51.494;11.974;2023-02-28T09:58:34;5.33;;;3.07;;
9970;SDS011;5026;51.494;11.974;2023-02-28T10:01:09;3.90;;;2.20;;
9970;SDS011;5026;51.494;11.974;2023-02-28T10:03:39;4.80;;;2.47;;
9970;SDS011;5026;51.494;11.974;2023-02-28T10:06:12;2.57;;;2.07;;
9970;SDS011;5026;51.494;11.974;2023-02-28T10:08:45;2.63;;;2.30;;
9970;SDS011;5026;51.494;11.974;2023-02-28T10:11:18;3.83;;;2.27;;
9970;SDS011;5026;51.494;11.974;2023-02-28T10:13:52;5.00;;;2.87;;
9970;SDS011;5026;51.494;11.974;2023-02-28T10:16:27;8.50;;;3.60;;
9970;SDS011;5026;51.494;11.974;2023-02-28T10:19:01;5.13;;;3.37;;
9970;SDS011;5026;51.494;11.974;2023-02-28T10:21:33;4.60;;;2.87;;
9970;SDS011;5026;51.494;11.974;2023-02-28T10:24:04;3.23;;;2.50;;
9970;SDS011;5026;51.494;11.974;2023-02-28T10:26:40;3.87;;;2.80;;
9970;SDS011;5026;51.494;11.974;2023-02-28T10:29:09;3.57;;;2.80;;
9970;SDS011;5026;51.494;11.974;2023-02-28T10:31:37;4.97;;;3.20;;
9970;SDS011;5026;51.494;11.974;2023-02-28T10:34:05;4.33;;;3.80;;
9970;SDS011;5026;51.494;11.974;2023-02-28T10:36:33;6.93;;;3.40;;
9970;SDS011;5026;51.494;11.974;2023-02-28T10:39:00;6.17;;;3.53;;
9970;SDS011;5026;51.494;11.974;2023-02-28T10:41:28;6.53;;;3.73;;
9970;SDS011;5026;51.494;11.974;2023-02-28T10:44:12;5.57;;;3.67;;
9970;SDS011;5026;51.494;11.974;2023-02-28T10:46:41;6.80;;;5.00;;
9970;SDS011;5026;51.494;11.974;2023-02-28T10:49:13;5.97;;;3.83;;
9970;SDS011;5026;51.494;11.974;2023-02-28T10:51:43;6.60;;;4.50;;
9970;SDS011;5026;51.494;11.974;2023-02-28T10:54:18;4.77;;;3.57;;
9970;SDS011;5026;51.494;11.974;2023-02-28T10:59:34;4.10;;;3.43;;
9970;SDS011;5026;51.494;11.974;2023-02-28T11:02:01;4.80;;;3.43;;
9970;SDS011;5026;51.494;11.974;2023-02-28T11:04:32;5.63;;;3.63;;
9970;SDS011;5026;51.494;11.974;2023-02-28T11:07:04;5.13;;;3.30;;
9970;SDS011;5026;51.494;11.974;2023-02-28T11:09:33;3.93;;;3.20;;
9970;SDS011;5026;51.494;11.974;2023-02-28T11:12:04;3.57;;;3.10;;
9970;SDS011;5026;51.494;11.974;2023-02-28T11:14:33;5.77;;;3.40;;
9970;SDS011;5026;51.494;11.974;2023-02-28T11:17:11;4.63;;;3.47;;
9970;SDS011;5026;51.494;11.974;2023-02-28T11:19:45;4.87;;;3.40;;
9970;SDS011;5026;51.494;11.974;2023-02-28T11:22:19;4.00;;;3.50;;
9970;SDS011;5026;51.494;11.974;2023-02-28T11:24:49;4.93;;;3.83;;
9970;SDS011;5026;51.494;11.974;2023-02-28T11:27:25;3.87;;;3.30;;
9970;SDS011;5026;51.494;11.974;2023-02-28T11:30:22;4.57;;;3.60;;
9970;SDS011;5026;51.494;11.974;2023-02-28T11:32:54;4.43;;;3.40;;
9970;SDS011;5026;51.494;11.974;2023-02-28T11:35:23;5.33;;;4.23;;
9970;SDS011;5026;51.494;11.974;2023-02-28T11:37:56;5.77;;;4.17;;
9970;SDS011;5026;51.494;11.974;2023-02-28T11:40:25;5.67;;;4.40;;
9970;SDS011;5026;51.494;11.974;2023-02-28T11:43:06;5.83;;;3.70;;
9970;SDS011;5026;51.494;11.974;2023-02-28T11:45:48;5.20;;;4.27;;
9970;SDS011;5026;51.494;11.974;2023-02-28T11:48:27;7.00;;;3.87;;
9970;SDS011;5026;51.494;11.974;2023-02-28T11:51:03;6.37;;;4.37;;
9970;SDS011;5026;51.494;11.974;2023-02-28T11:53:51;4.40;;;3.63;;
9970;SDS011;5026;51.494;11.974;2023-02-28T11:56:31;6.70;;;4.70;;
9970;SDS011;5026;51.494;11.974;2023-02-28T11:59:07;6.27;;;4.43;;
9970;SDS011;5026;51.494;11.974;2023-02-28T12:02:06;7.53;;;4.07;;
9970;SDS011;5026;51.494;11.974;2023-02-28T12:07:46;6.37;;;4.63;;
9970;SDS011;5026;51.494;11.974;2023-02-28T12:10:23;5.47;;;3.97;;
9970;SDS011;5026;51.494;11.974;2023-02-28T12:12:56;8.33;;;4.80;;
9970;SDS011;5026;51.494;11.974;2023-02-28T12:18:38;7.40;;;4.60;;
9970;SDS011;5026;51.494;11.974;2023-02-28T12:21:24;8.30;;;4.80;;
9970;SDS011;5026;51.494;11.974;2023-02-28T12:24:03;6.57;;;3.97;;
9970;SDS011;5026;51.494;11.974;2023-02-28T12:26:50;7.67;;;3.83;;
9970;SDS011;5026;51.494;11.974;2023-02-28T12:29:19;10.50;;;5.27;;
9970;SDS011;5026;51.494;11.974;2023-02-28T12:31:49;8.43;;;4.63;;
9970;SDS011;5026;51.494;11.974;2023-02-28T12:34:22;5.70;;;3.97;;
9970;SDS011;5026;51.494;11.974;2023-02-28T12:36:53;6.03;;;4.47;;
9970;SDS011;5026;51.494;11.974;2023-02-28T12:39:26;6.20;;;4.57;;
9970;SDS011;5026;51.494;11.974;2023-02-28T12:41:59;4.90;;;4.03;;
9970;SDS011;5026;51.494;11.974;2023-02-28T12:44:30;6.17;;;4.10;;
9970;SDS011;5026;51.494;11.974;2023-02-28T12:47:01;5.73;;;4.67;;
9970;SDS011;5026;51.494;11.974;2023-02-28T12:49:31;6.03;;;5.00;;
9970;SDS011;5026;51.494;11.974;2023-02-28T12:52:00;5.50;;;4.20;;
9970;SDS011;5026;51.494;11.974;2023-02-28T12:54:29;5.93;;;4.40;;
9970;SDS011;5026;51.494;11.974;2023-02-28T12:57:08;8.63;;;4.60;;
9970;SDS011;5026;51.494;11.974;2023-02-28T12:59:40;5.80;;;4.20;;
9970;SDS011;5026;51.494;11.974;2023-02-28T13:02:21;5.77;;;4.90;;
9970;SDS011;5026;51.494;11.974;2023-02-28T13:05:32;5.37;;;4.50;;
9970;SDS011;5026;51.494;11.974;2023-02-28T13:11:27;7.57;;;4.47;;
9970;SDS011;5026;51.494;11.974;2023-02-28T13:13:58;7.10;;;4.37;;
9970;SDS011;5026;51.494;11.974;2023-02-28T13:16:27;8.53;;;4.67;;
9970;SDS011;5026;51.494;11.974;2023-02-28T13:19:07;5.30;;;4.50;;
9970;SDS011;5026;51.494;11.974;2023-02-28T13:21:41;5.43;;;3.93;;
9970;SDS011;5026;51.494;11.974;2023-02-28T13:24:13;7.03;;;3.87;;
9970;SDS011;5026;51.494;11.974;2023-02-28T13:27:20;6.77;;;4.70;;
9970;SDS011;5026;51.494;11.974;2023-02-28T13:29:53;5.93;;;4.47;;
9970;SDS011;5026;51.494;11.974;2023-02-28T13:35:15;6.07;;;4.50;;
9970;SDS011;5026;51.494;11.974;2023-02-28T13:40:49;7.80;;;5.07;;
9970;SDS011;5026;51.494;11.974;2023-02-28T13:43:17;7.90;;;4.33;;
9970;SDS011;5026;51.494;11.974;2023-02-28T13:46:06;6.53;;;4.80;;
9970;SDS011;5026;51.494;11.974;2023-02-28T13:48:38;10.13;;;4.70;;
9970;SDS011;5026;51.494;11.974;2023-02-28T13:51:31;8.50;;;5.03;;
9970;SDS011;5026;51.494;11.974;2023-02-28T13:54:07;5.40;;;4.33;;
9970;SDS011;5026;51.494;11.974;2023-02-28T13:56:48;7.23;;;5.00;;
9970;SDS011;5026;51.494;11.974;2023-02-28T13:59:25;7.43;;;5.00;;
9970;SDS011;5026;51.494;11.974;2023-02-28T14:02:02;8.80;;;5.07;;
9970;SDS011;5026;51.494;11.974;2023-02-28T14:04:50;6.17;;;4.60;;
9970;SDS011;5026;51.494;11.974;2023-02-28T14:07:27;8.83;;;4.90;;
9970;SDS011;5026;51.494;11.974;2023-02-28T14:09:59;5.10;;;4.33;;
9970;SDS011;5026;51.494;11.974;2023-02-28T14:15:28;8.43;;;4.63;;
9970;SDS011;5026;51.494;11.974;2023-02-28T14:21:01;7.30;;;4.53;;
9970;SDS011;5026;51.494;11.974;2023-02-28T14:29:43;5.73;;;4.13;;
9970;SDS011;5026;51.494;11.974;2023-02-28T14:32:37;8.07;;;6.37;;
9970;SDS011;5026;51.494;11.974;2023-02-28T14:35:16;6.87;;;4.17;;
9970;SDS011;5026;51.494;11.974;2023-02-28T14:37:54;5.63;;;4.20;;
9970;SDS011;5026;51.494;11.974;2023-02-28T14:40:23;7.73;;;5.10;;
9970;SDS011;5026;51.494;11.974;2023-02-28T14:42:56;5.60;;;4.67;;
9970;SDS011;5026;51.494;11.974;2023-02-28T14:45:24;4.73;;;4.13;;
9970;SDS011;5026;51.494;11.974;2023-02-28T14:47:54;7.87;;;5.00;;
9970;SDS011;5026;51.494;11.974;2023-02-28T14:50:26;6.10;;;4.60;;
9970;SDS011;5026;51.494;11.974;2023-02-28T14:52:56;20.53;;;8.70;;
9970;SDS011;5026;51.494;11.974;2023-02-28T14:55:26;9.63;;;5.03;;
9970;SDS011;5026;51.494;11.974;2023-02-28T14:57:55;8.77;;;4.70;;
9970;SDS011;5026;51.494;11.974;2023-02-28T15:00:24;6.53;;;4.30;;
9970;SDS011;5026;51.494;11.974;2023-02-28T15:02:51;4.93;;;4.30;;
9970;SDS011;5026;51.494;11.974;2023-02-28T15:05:22;7.93;;;5.20;;
9970;SDS011;5026;51.494;11.974;2023-02-28T15:08:05;7.33;;;4.43;;
9970;SDS011;5026;51.494;11.974;2023-02-28T15:10:38;9.20;;;4.53;;
9970;SDS011;5026;51.494;11.974;2023-02-28T15:13:07;7.80;;;5.47;;
9970;SDS011;5026;51.494;11.974;2023-02-28T15:15:43;10.17;;;4.80;;
9970;SDS011;5026;51.494;11.974;2023-02-28T15:18:15;6.30;;;4.60;;
9970;SDS011;5026;51.494;11.974;2023-02-28T15:20:50;7.90;;;4.37;;
9970;SDS011;5026;51.494;11.974;2023-02-28T15:23:17;9.67;;;5.10;;
9970;SDS011;5026;51.494;11.974;2023-02-28T15:25:45;4.37;;;3.97;;
9970;SDS011;5026;51.494;11.974;2023-02-28T15:28:14;7.07;;;5.13;;
9970;SDS011;5026;51.494;11.974;2023-02-28T15:30:53;7.07;;;4.80;;
9970;SDS011;5026;51.494;11.974;2023-02-28T15:33:23;12.10;;;6.13;;
9970;SDS011;5026;51.494;11.974;2023-02-28T15:36:02;8.43;;;4.67;;
9970;SDS011;5026;51.494;11.974;2023-02-28T15:38:33;6.67;;;4.37;;
9970;SDS011;5026;51.494;11.974;2023-02-28T15:41:02;8.57;;;5.93;;
9970;SDS011;5026;51.494;11.974;2023-02-28T15:43:33;6.80;;;4.43;;
9970;SDS011;5026;51.494;11.974;2023-02-28T15:46:02;6.03;;;4.60;;
9970;SDS011;5026;51.494;11.974;2023-02-28T15:48:32;8.83;;;5.43;;
9970;SDS011;5026;51.494;11.974;2023-02-28T15:51:09;7.63;;;4.57;;
9970;SDS011;5026;51.494;11.974;2023-02-28T15:53:45;9.47;;;4.90;;
9970;SDS011;5026;51.494;11.974;2023-02-28T15:56:19;9.80;;;4.40;;
9970;SDS011;5026;51.494;11.974;2023-02-28T15:58:53;8.03;;;4.80;;
9970;SDS011;5026;51.494;11.974;2023-02-28T16:01:23;8.03;;;4.87;;
9970;SDS011;5026;51.494;11.974;2023-02-28T16:03:53;9.37;;;4.90;;